This is the latest recevied weather packets stored in our database for station/object N6RDS. If no packets are shown the sender has not sent any weather packets the latest 10 day(s).
| Time | Temp. | Humidity | Pressure | Rain* | Wind** | Luminosity | Snow |
|---|---|---|---|---|---|---|---|
| 1777622464 | 7.78° C | 34% | 1022.1 hPa | 0 mm | - | 0 W/m² | - |
| 1777622160 | 8.33° C | 31% | 1022 hPa | 0 mm | - | 0 W/m² | - |
| 1777621856 | 8.89° C | 31% | 1022.2 hPa | 0 mm | - | 0 W/m² | - |
| 1777621552 | 7.78° C | 31% | 1022.2 hPa | 0 mm | - | 0 W/m² | - |
| 1777621249 | 7.22° C | 33% | 1022.4 hPa | 0 mm | - | 0 W/m² | - |
| 1777620945 | 6.67° C | 34% | 1022.3 hPa | 0 mm | - | 0 W/m² | - |
| 1777620641 | 6.11° C | 39% | 1022.2 hPa | 0 mm | - | 0 W/m² | - |
| 1777620337 | 6.11° C | 39% | 1022.2 hPa | 0 mm | - | 0 W/m² | - |
| 1777620034 | 6.67° C | 37% | 1022.3 hPa | 0 mm | - | 0 W/m² | - |
| 1777619731 | 7.22° C | 36% | 1022.2 hPa | 0 mm | - | 0 W/m² | - |
| 1777619431 | 7.22° C | 36% | 1022.4 hPa | 0 mm | - | 0 W/m² | - |
| 1777619126 | 6.67° C | 37% | 1022.2 hPa | 0 mm | - | 0 W/m² | - |
| 1777618821 | 6.11° C | 39% | 1022 hPa | 0 mm | - | 0 W/m² | - |
| 1777618521 | 5° C | 44% | 1022 hPa | 0 mm | - | 0 W/m² | - |
| 1777618218 | 5° C | 43% | 1021.8 hPa | 0 mm | - | 0 W/m² | - |
| 1777617915 | 5° C | 42% | 1021.6 hPa | 0 mm | - | 0 W/m² | - |
| 1777617610 | 5° C | 42% | 1021.5 hPa | 0 mm | - | 0 W/m² | - |
| 1777617306 | 5° C | 42% | 1021.3 hPa | 0 mm | - | 0 W/m² | - |
| 1777617004 | 5° C | 41% | 1021.7 hPa | 0 mm | - | 0 W/m² | - |
| 1777616698 | 5.56° C | 41% | 1021.7 hPa | 0 mm | - | 0 W/m² | - |
| 1777616394 | 5.56° C | 41% | 1021.6 hPa | 0 mm | - | 0 W/m² | - |
| 1777616091 | 5.56° C | 41% | 1021.6 hPa | 0 mm | - | 0 W/m² | - |
| 1777615788 | 6.11° C | 39% | 1021.6 hPa | 0 mm | - | 0 W/m² | - |
| 1777615485 | 6.11° C | 40% | 1021.6 hPa | 0 mm | - | 0 W/m² | - |
| 1777615179 | 6.67° C | 40% | 1021.5 hPa | 0 mm | - | 0 W/m² | - |
* Rain latest hour (hover to see other rain measurements)
** Current wind speed in m/s (hover to see current wind gust speed)